San Francisco, CA (94131)

9:10 AM PST on February 10, 2016 (GMT -0800)
APRSWXNET | | Change Station
CLOSE
Current Station
Personal Weather Station
Location: San Francisco, CA
Elevation: 406 ft
Nearby Weather Stations

Elev 406 ft 37.74 °N, 122.44 °W | Updated 36 minutes ago

Partly Cloudy
Partly Cloudy
56 °F
Feels Like 56 °F
N
1
Wind Variable Wind from NW
Gusts 0.0 mph

Today
High -- | Low -- °F
--% Chance of Precip.
Yesterday
High -- | Low -- °F
Precip. -- in
Pressure 30.27 in
Visibility 8.0 miles
Clouds Few 2000 ft
Mostly Cloudy 20000 ft
Dew Point 47 °F
Humidity 72%
Rainfall in
Snow Depth Not available.
7:05 AM 5:43 PM
Waxing Crescent, 6% visible
METAR KSFO 101656Z 13004KT 8SM FEW020 BKN200 14/10 A3027 RMK AO2 SLP250 T01390100 $
Pressure 30.27 in
Visibility 8.0 miles
Clouds Few 2000 ft
Mostly Cloudy 20000 ft
Dew Point 47 °F
Humidity 72%
Rainfall in
Snow Depth Not available.
7:05 AM 5:43 PM
Waxing Crescent, 6% visible
METAR KSFO 101656Z 13004KT 8SM FEW020 BKN200 14/10 A3027 RMK AO2 SLP250 T01390100 $

10-Day Weather Forecast

Almanac

Astronomy

Feb. 10, 2016 Rise Set
Actual Time
Civil Twilight
Nautical Twilight
Astronomical Twilight
Moon
Length of Visible Light
Length of Day
Tomorrow will be .
, % of the Moon is Illuminated

Today's Extremes

State Highs State Lows

Community

WunderPhotos

Upload Photos

1,891,892 photos uploaded!

WunderBlog® & News

Nearby

Air Quality

  Air Quality AQ Index Pollutant
Not available.

Snow Depth

Station Depth Elevation

Earthquake Activity

City Distance Mag. Time & Date
Minimum magnitude displayed is 2.5.

Coastal Water Temperatures

Place Temperature

Stations

Nearby Weather Stations

Station Location Temp. Windchill Dew Point Humidity Wind Precip. Elev Updated Type
                   

Watches & Warnings

There are currently no watches in effect.